createdAt,value
2024-03-20T00:00:53.729Z,62.18
2024-03-20T00:01:53.698Z,61.07
2024-03-20T00:02:53.687Z,61.52
2024-03-20T00:03:53.700Z,64.71
2024-03-20T00:04:53.690Z,64.47
2024-03-20T00:05:53.721Z,61.81
2024-03-20T00:06:53.712Z,62.18
2024-03-20T00:07:53.718Z,62.90
2024-03-20T00:08:53.728Z,64.86
2024-03-20T00:09:53.703Z,63.10
2024-03-20T00:10:53.724Z,62.03
2024-03-20T00:11:53.724Z,63.21
2024-03-20T00:12:53.751Z,62.12
2024-03-20T00:13:53.688Z,59.84
2024-03-20T00:14:53.714Z,61.54
2024-03-20T00:15:53.725Z,65.52
2024-03-20T00:16:53.722Z,63.11
2024-03-20T00:17:53.717Z,63.98
2024-03-20T00:18:53.714Z,62.22
2024-03-20T00:19:53.742Z,61.42
2024-03-20T00:20:53.710Z,62.85
2024-03-20T00:21:53.735Z,62.57
2024-03-20T00:22:53.729Z,63.00
2024-03-20T00:23:53.721Z,61.43
2024-03-20T00:24:53.748Z,60.02
2024-03-20T00:25:53.740Z,62.29
2024-03-20T00:26:55.514Z,63.02
2024-03-20T00:27:53.758Z,60.89
2024-03-20T00:28:53.740Z,64.42
2024-03-20T00:29:53.726Z,61.71
2024-03-20T00:30:53.778Z,63.35
2024-03-20T00:31:53.751Z,62.80
2024-03-20T00:32:53.721Z,60.21
2024-03-20T00:33:53.731Z,62.69
2024-03-20T00:34:53.763Z,62.99
2024-03-20T00:35:53.754Z,63.25
2024-03-20T00:36:53.756Z,60.79
2024-03-20T00:37:53.768Z,62.33
2024-03-20T00:38:53.781Z,63.40
2024-03-20T00:39:53.783Z,63.00
2024-03-20T00:40:53.785Z,63.61
2024-03-20T00:41:53.819Z,65.43
2024-03-20T00:42:53.854Z,61.67
2024-03-20T00:43:53.909Z,62.99
2024-03-20T00:44:53.939Z,61.52
2024-03-20T00:45:53.991Z,60.88
2024-03-20T00:46:54.048Z,64.51
2024-03-20T00:47:54.052Z,61.50
2024-03-20T00:48:54.146Z,62.27
2024-03-20T00:49:54.215Z,61.42
2024-03-20T00:50:54.229Z,61.12
2024-03-20T00:51:54.263Z,62.10
2024-03-20T00:52:54.331Z,60.59
2024-03-20T00:53:54.390Z,62.87
2024-03-20T00:54:54.461Z,62.11
2024-03-20T00:55:54.505Z,63.14
2024-03-20T00:56:54.571Z,60.86
2024-03-20T00:57:54.582Z,63.04
2024-03-20T00:58:54.612Z,61.36
2024-03-20T00:59:54.667Z,62.79
2024-03-20T01:00:54.731Z,63.88
2024-03-20T01:01:54.777Z,63.15
2024-03-20T01:02:54.828Z,60.56
2024-03-20T01:03:54.926Z,61.29
2024-03-20T01:04:54.946Z,61.04
2024-03-20T01:05:54.988Z,62.42
2024-03-20T01:06:55.006Z,61.36
2024-03-20T01:07:55.077Z,63.63
2024-03-20T01:08:55.132Z,63.28
2024-03-20T01:09:55.170Z,61.73
2024-03-20T01:10:55.229Z,63.80
2024-03-20T01:11:55.297Z,62.47
2024-03-20T01:12:55.310Z,63.00
2024-03-20T01:13:55.340Z,63.01
2024-03-20T01:14:55.414Z,60.30
2024-03-20T01:15:55.423Z,63.25
2024-03-20T01:16:55.477Z,62.00
2024-03-20T01:17:55.528Z,61.32
2024-03-20T01:18:55.569Z,61.56
2024-03-20T01:19:55.624Z,63.39
2024-03-20T01:20:55.674Z,62.30
2024-03-20T01:21:55.717Z,60.59
2024-03-20T01:22:55.767Z,60.75
2024-03-20T01:23:55.843Z,62.93
2024-03-20T01:24:55.893Z,59.18
2024-03-20T01:25:55.934Z,61.61
2024-03-20T01:26:55.961Z,65.25
2024-03-20T01:27:56.021Z,60.55
2024-03-20T01:28:56.050Z,61.04
2024-03-20T01:29:56.094Z,62.86
2024-03-20T01:30:56.167Z,62.65
2024-03-20T01:31:56.206Z,63.75
2024-03-20T01:32:56.280Z,63.51
2024-03-20T01:33:56.300Z,59.17
2024-03-20T01:34:56.367Z,61.55
2024-03-20T01:35:56.413Z,62.08
2024-03-20T01:36:56.457Z,60.69
2024-03-20T01:37:56.530Z,63.06
2024-03-20T01:38:56.569Z,59.12
2024-03-20T01:39:56.606Z,64.69
2024-03-20T01:40:56.673Z,62.39
2024-03-20T01:41:56.696Z,61.75
2024-03-20T01:42:56.744Z,63.14
2024-03-20T01:43:56.779Z,63.90
2024-03-20T01:44:56.819Z,60.43
2024-03-20T01:45:56.899Z,61.20
2024-03-20T01:46:56.962Z,62.20
2024-03-20T01:47:57.022Z,62.11
2024-03-20T01:48:57.059Z,60.79
2024-03-20T01:49:57.090Z,60.45
2024-03-20T01:50:57.156Z,60.02
2024-03-20T01:51:57.210Z,63.60
2024-03-20T01:52:57.220Z,61.14
2024-03-20T01:53:57.261Z,61.49
2024-03-20T01:54:57.322Z,63.11
2024-03-20T01:55:57.386Z,60.69
2024-03-20T01:56:57.446Z,60.81
2024-03-20T01:57:57.492Z,63.01
2024-03-20T01:58:57.533Z,61.14
2024-03-20T01:59:57.564Z,63.72
2024-03-20T02:00:57.644Z,62.06
2024-03-20T02:01:57.705Z,63.73
2024-03-20T02:02:57.735Z,59.90
2024-03-20T02:03:57.766Z,62.04
2024-03-20T02:04:57.866Z,63.23
2024-03-20T02:05:57.928Z,60.02
2024-03-20T02:06:57.920Z,60.91
2024-03-20T02:07:57.963Z,63.93
2024-03-20T02:08:58.036Z,59.29
2024-03-20T02:09:58.104Z,62.71
2024-03-20T02:10:58.122Z,64.12
2024-03-20T02:11:58.220Z,62.76
2024-03-20T02:12:58.233Z,61.96
2024-03-20T02:13:58.286Z,63.21
2024-03-20T02:14:58.333Z,62.60
2024-03-20T02:15:58.393Z,59.69
2024-03-20T02:16:58.394Z,63.04
2024-03-20T02:17:58.478Z,62.05
2024-03-20T02:18:58.530Z,63.18
2024-03-20T02:19:58.557Z,61.23
2024-03-20T02:20:58.643Z,62.78
2024-03-20T02:21:59.259Z,63.05
2024-03-20T02:22:58.720Z,63.20
2024-03-20T02:23:58.756Z,62.79
2024-03-20T02:24:58.802Z,62.34
2024-03-20T02:25:58.849Z,62.47
2024-03-20T02:26:58.933Z,61.68
2024-03-20T02:27:59.044Z,60.53
2024-03-20T02:28:58.958Z,61.03
2024-03-20T02:29:59.058Z,59.39
2024-03-20T02:30:59.112Z,63.65
2024-03-20T02:31:59.119Z,62.00
2024-03-20T02:32:59.161Z,63.22
2024-03-20T02:33:59.235Z,61.82
2024-03-20T02:34:59.238Z,60.38
2024-03-20T02:35:59.290Z,58.99
2024-03-20T02:36:59.331Z,60.39
2024-03-20T02:37:59.369Z,59.25
2024-03-20T02:38:59.432Z,62.93
2024-03-20T02:39:59.442Z,62.72
2024-03-20T02:40:59.517Z,60.54
2024-03-20T02:41:59.558Z,60.60
2024-03-20T02:42:59.606Z,61.61
2024-03-20T02:43:59.655Z,60.31
2024-03-20T02:44:59.688Z,61.26
2024-03-20T02:45:59.772Z,62.25
2024-03-20T02:46:59.809Z,59.67
2024-03-20T02:47:59.901Z,60.84
2024-03-20T02:48:59.915Z,59.20
2024-03-20T02:49:59.959Z,63.11
2024-03-20T02:51:00.034Z,62.48
2024-03-20T02:52:00.081Z,61.65
2024-03-20T02:53:00.140Z,59.75
2024-03-20T02:54:00.264Z,61.52
2024-03-20T02:55:00.247Z,60.55
2024-03-20T02:56:00.257Z,61.64
2024-03-20T02:57:00.320Z,59.32
2024-03-20T02:58:00.372Z,58.18
2024-03-20T02:59:00.406Z,61.17
2024-03-20T03:00:00.448Z,60.82
2024-03-20T03:01:00.505Z,61.17
2024-03-20T03:02:00.572Z,58.92
2024-03-20T03:03:00.598Z,60.55
2024-03-20T03:04:00.676Z,60.16
2024-03-20T03:05:00.722Z,61.61
2024-03-20T03:06:00.789Z,59.09
2024-03-20T03:07:00.821Z,62.35
2024-03-20T03:08:00.872Z,61.99
2024-03-20T03:09:00.909Z,59.91
2024-03-20T03:10:00.939Z,61.06
2024-03-20T03:11:01.048Z,59.82
2024-03-20T03:12:01.042Z,62.42
2024-03-20T03:13:01.117Z,60.73
2024-03-20T03:14:01.162Z,55.74
2024-03-20T03:15:07.067Z,59.77
2024-03-20T03:16:02.202Z,59.81
2024-03-20T03:17:01.204Z,60.17
2024-03-20T03:18:01.392Z,60.48
2024-03-20T03:19:01.178Z,58.99
2024-03-20T03:20:01.198Z,61.02
2024-03-20T03:21:01.208Z,59.25
2024-03-20T03:22:01.217Z,61.54
2024-03-20T03:23:01.222Z,61.23
2024-03-20T03:24:01.174Z,58.57
2024-03-20T03:25:01.164Z,60.88
2024-03-20T03:26:01.199Z,58.54
2024-03-20T03:27:01.184Z,58.35
2024-03-20T03:28:01.177Z,58.23
2024-03-20T03:29:01.208Z,60.00
2024-03-20T03:30:01.270Z,60.55
2024-03-20T03:31:01.328Z,59.60
2024-03-20T03:32:01.392Z,61.51
2024-03-20T03:33:01.405Z,62.22
2024-03-20T03:34:01.453Z,58.29
2024-03-20T03:35:01.508Z,61.86
2024-03-20T03:36:01.551Z,62.04
2024-03-20T03:37:01.591Z,61.11
2024-03-20T03:38:01.648Z,60.18
2024-03-20T03:39:01.673Z,59.12
2024-03-20T03:40:01.744Z,59.80
2024-03-20T03:41:01.806Z,57.37
2024-03-20T03:42:01.861Z,59.67
2024-03-20T03:43:01.918Z,59.24
2024-03-20T03:44:01.987Z,59.60
2024-03-20T03:45:02.013Z,59.39
2024-03-20T03:46:02.113Z,60.21
2024-03-20T03:47:02.110Z,58.67
2024-03-20T03:48:02.147Z,59.63
2024-03-20T03:49:02.225Z,61.35
2024-03-20T03:50:02.237Z,59.91
2024-03-20T03:51:02.335Z,60.41
2024-03-20T03:52:02.355Z,63.48
2024-03-20T03:53:02.385Z,61.54
2024-03-20T03:54:02.421Z,60.51
2024-03-20T03:55:02.459Z,59.26
2024-03-20T03:56:02.560Z,58.55
2024-03-20T03:57:02.586Z,60.46
2024-03-20T03:58:02.641Z,58.18
2024-03-20T03:59:02.671Z,59.20
2024-03-20T04:00:02.698Z,58.91
2024-03-20T04:01:02.761Z,57.88
2024-03-20T04:02:02.825Z,60.47
2024-03-20T04:03:02.822Z,56.94
2024-03-20T04:04:02.892Z,60.90
2024-03-20T04:05:02.952Z,59.37
2024-03-20T04:06:03.010Z,57.49
2024-03-20T04:07:03.027Z,61.21
2024-03-20T04:08:03.114Z,61.21
2024-03-20T04:09:03.146Z,61.06
2024-03-20T04:10:03.212Z,59.74
2024-03-20T04:11:03.214Z,58.66
2024-03-20T04:12:03.287Z,58.98
2024-03-20T04:13:03.304Z,59.68
2024-03-20T04:14:03.384Z,58.60
2024-03-20T04:15:03.439Z,60.89
2024-03-20T04:16:03.460Z,58.74
2024-03-20T04:17:03.569Z,58.06
2024-03-20T04:18:03.597Z,59.72
2024-03-20T04:19:03.661Z,61.60
2024-03-20T04:20:03.672Z,60.71
2024-03-20T04:21:03.830Z,54.83
2024-03-20T04:22:03.772Z,59.11
2024-03-20T04:23:03.842Z,60.40
2024-03-20T04:24:03.890Z,60.02
2024-03-20T04:25:03.945Z,61.66
2024-03-20T04:26:03.997Z,61.41
2024-03-20T04:27:03.999Z,57.52
2024-03-20T04:28:04.068Z,57.57
2024-03-20T04:29:04.130Z,58.71
2024-03-20T04:30:11.355Z,50.00
2024-03-20T04:31:18.717Z,50.00
2024-03-20T04:32:18.796Z,50.00
2024-03-20T04:33:18.807Z,50.00
2024-03-20T04:34:18.869Z,50.00
2024-03-20T04:35:18.919Z,50.00
2024-03-20T04:36:18.969Z,51.22
2024-03-20T04:37:18.975Z,52.27
2024-03-20T04:38:19.029Z,51.13
2024-03-20T04:39:19.101Z,53.61
2024-03-20T04:40:19.123Z,54.94
2024-03-20T04:41:19.215Z,49.86
2024-03-20T04:42:19.262Z,51.76
2024-03-20T04:43:19.310Z,51.63
2024-03-20T04:44:19.360Z,52.41
2024-03-20T04:45:19.407Z,54.05
2024-03-20T04:46:19.468Z,50.36
2024-03-20T04:47:19.511Z,52.66
2024-03-20T04:48:19.598Z,52.11
2024-03-20T04:49:19.638Z,53.85
2024-03-20T04:50:19.666Z,52.01
2024-03-20T04:51:19.747Z,52.44
2024-03-20T04:52:19.784Z,52.61
2024-03-20T04:53:19.842Z,52.82
2024-03-20T04:54:22.057Z,52.01
2024-03-20T04:55:19.881Z,50.54
2024-03-20T04:56:19.893Z,52.15
2024-03-20T04:57:19.909Z,53.07
2024-03-20T04:58:19.869Z,53.45
2024-03-20T04:59:19.879Z,52.32
2024-03-20T05:00:19.923Z,52.29
2024-03-20T05:01:19.901Z,53.47
2024-03-20T05:02:19.901Z,52.52
2024-03-20T05:03:19.925Z,54.37
2024-03-20T05:04:19.900Z,52.18
2024-03-20T05:05:19.890Z,52.38
2024-03-20T05:06:19.899Z,54.72
2024-03-20T05:07:19.935Z,54.35
2024-03-20T05:08:19.910Z,54.66
2024-03-20T05:09:19.922Z,53.69
2024-03-20T05:10:19.924Z,51.80
2024-03-20T05:11:19.942Z,52.08
2024-03-20T05:12:19.950Z,53.06
2024-03-20T05:13:19.906Z,53.92
2024-03-20T05:14:19.914Z,52.59
2024-03-20T05:15:19.904Z,51.92
2024-03-20T05:16:19.936Z,53.93
2024-03-20T05:17:19.955Z,52.27
2024-03-20T05:18:19.949Z,52.66
2024-03-20T05:19:19.915Z,52.25
2024-03-20T05:20:19.944Z,54.08
2024-03-20T05:21:19.935Z,50.63
2024-03-20T05:22:19.913Z,53.12
2024-03-20T05:23:19.921Z,53.10
2024-03-20T05:24:19.917Z,51.38
2024-03-20T05:25:19.939Z,51.93
2024-03-20T05:26:19.947Z,50.71
2024-03-20T05:27:20.009Z,52.44
2024-03-20T05:28:19.965Z,54.36
2024-03-20T05:29:19.912Z,52.34
2024-03-20T05:30:19.924Z,55.47
2024-03-20T05:31:19.949Z,53.00
2024-03-20T05:32:19.908Z,53.20
2024-03-20T05:33:19.951Z,52.29
2024-03-20T05:34:19.952Z,55.33
2024-03-20T05:35:19.939Z,50.99
2024-03-20T05:36:19.975Z,51.97
2024-03-20T05:37:19.959Z,54.01
2024-03-20T05:38:19.961Z,53.55
2024-03-20T05:39:19.937Z,54.80
2024-03-20T05:40:19.933Z,51.25
2024-03-20T05:41:19.953Z,52.75
2024-03-20T05:42:19.958Z,53.51
2024-03-20T05:43:19.918Z,52.35
2024-03-20T05:44:19.963Z,55.17
2024-03-20T05:45:19.966Z,55.49
2024-03-20T05:46:19.922Z,52.99
2024-03-20T05:47:19.985Z,54.33
2024-03-20T05:48:19.937Z,53.45
2024-03-20T05:49:19.988Z,54.26
2024-03-20T05:50:20.061Z,54.23
2024-03-20T05:51:20.108Z,51.88
2024-03-20T05:52:20.136Z,51.37
2024-03-20T05:53:20.204Z,53.43
2024-03-20T05:54:20.245Z,54.99
2024-03-20T05:55:20.263Z,52.91
2024-03-20T05:56:20.315Z,53.44
2024-03-20T05:57:20.408Z,52.99
2024-03-20T05:58:20.415Z,52.20
2024-03-20T05:59:20.435Z,52.33
2024-03-20T06:00:20.494Z,54.34
2024-03-20T06:01:20.534Z,52.76
2024-03-20T06:02:20.553Z,53.22
2024-03-20T06:03:20.596Z,51.60
2024-03-20T06:04:20.624Z,52.30
2024-03-20T06:05:23.361Z,55.17
2024-03-20T06:06:20.653Z,55.77
2024-03-20T06:07:20.674Z,55.75
2024-03-20T06:08:20.661Z,54.20
2024-03-20T06:09:20.653Z,55.62
2024-03-20T06:10:20.661Z,55.73
2024-03-20T06:11:20.682Z,55.35
2024-03-20T06:12:20.669Z,54.47
2024-03-20T06:13:20.655Z,56.80
2024-03-20T06:14:20.673Z,56.56
2024-03-20T06:15:20.646Z,54.95
2024-03-20T06:16:20.669Z,54.58
2024-03-20T06:17:20.700Z,53.78
2024-03-20T06:18:20.662Z,57.50
2024-03-20T06:19:20.694Z,54.93
2024-03-20T06:20:20.704Z,55.54
2024-03-20T06:21:20.667Z,54.27
2024-03-20T06:22:20.717Z,58.42
2024-03-20T06:23:20.669Z,57.10
2024-03-20T06:24:20.689Z,56.08
2024-03-20T06:25:20.672Z,53.32
2024-03-20T06:26:20.677Z,54.36
2024-03-20T06:27:20.696Z,54.80
2024-03-20T06:28:23.821Z,56.77
2024-03-20T06:29:20.686Z,56.33
2024-03-20T06:30:20.687Z,56.81
2024-03-20T06:31:20.684Z,55.70
2024-03-20T06:32:20.701Z,57.57
2024-03-20T06:33:20.685Z,56.98
2024-03-20T06:34:20.717Z,56.33
2024-03-20T06:35:20.692Z,57.52
2024-03-20T06:36:20.703Z,58.40
2024-03-20T06:37:20.732Z,55.06
2024-03-20T06:38:20.744Z,57.92
2024-03-20T06:39:20.712Z,55.20
2024-03-20T06:40:20.720Z,55.44
2024-03-20T06:41:20.730Z,55.25
2024-03-20T06:42:20.705Z,56.62
2024-03-20T06:43:20.715Z,56.82
2024-03-20T06:44:20.739Z,57.01
2024-03-20T06:45:20.733Z,56.07
2024-03-20T06:46:20.738Z,55.92
2024-03-20T06:47:20.717Z,55.74
2024-03-20T06:48:20.775Z,54.96
2024-03-20T06:49:20.711Z,56.05
2024-03-20T06:50:20.728Z,57.80
2024-03-20T06:51:20.722Z,58.48
2024-03-20T06:52:22.029Z,57.76
2024-03-20T06:53:20.739Z,57.82
2024-03-20T06:54:20.746Z,58.38
2024-03-20T06:55:20.761Z,60.19
2024-03-20T06:56:20.762Z,64.42
2024-03-20T06:57:20.731Z,66.50
2024-03-20T06:58:20.755Z,70.32
2024-03-20T06:59:20.745Z,73.57
2024-03-20T07:00:20.766Z,73.72
2024-03-20T07:01:20.756Z,75.74
2024-03-20T07:02:20.767Z,81.86
2024-03-20T07:03:20.779Z,85.90
2024-03-20T07:04:24.706Z,88.55
2024-03-20T07:05:20.829Z,88.66
2024-03-20T07:06:20.818Z,89.16
2024-03-20T07:07:20.857Z,91.04
2024-03-20T07:08:20.839Z,96.19
2024-03-20T07:09:20.860Z,104.23
2024-03-20T07:10:20.826Z,106.14
2024-03-20T07:11:20.834Z,109.66
2024-03-20T07:12:20.841Z,114.37
2024-03-20T07:13:20.851Z,117.54
2024-03-20T07:14:20.826Z,118.77
2024-03-20T07:15:20.817Z,123.34
2024-03-20T07:16:20.848Z,125.17
2024-03-20T07:17:20.844Z,128.46
2024-03-20T07:18:20.871Z,130.79
2024-03-20T07:19:20.846Z,134.77
2024-03-20T07:20:20.843Z,137.75
2024-03-20T07:21:20.854Z,139.65
2024-03-20T07:22:20.868Z,145.83
2024-03-20T07:23:20.856Z,149.56
2024-03-20T07:24:20.872Z,149.30
2024-03-20T07:25:20.892Z,150.58
2024-03-20T07:26:20.941Z,150.13
2024-03-20T07:27:20.963Z,151.92
2024-03-20T07:28:20.994Z,152.19
2024-03-20T07:29:21.018Z,155.11
2024-03-20T07:30:21.065Z,157.50
2024-03-20T07:31:21.082Z,158.55
2024-03-20T07:32:21.122Z,159.96
2024-03-20T07:33:21.154Z,165.48
2024-03-20T07:34:21.181Z,168.32
2024-03-20T07:35:21.186Z,170.04
2024-03-20T07:36:21.218Z,173.39
2024-03-20T07:37:21.229Z,169.97
2024-03-20T07:38:21.244Z,162.52
2024-03-20T07:39:21.306Z,161.01
2024-03-20T07:40:21.237Z,163.52
2024-03-20T07:41:21.292Z,168.51
2024-03-20T07:42:21.334Z,177.35
2024-03-20T07:43:21.318Z,188.65
2024-03-20T07:44:21.411Z,194.72
2024-03-20T07:45:21.529Z,199.78
2024-03-20T07:46:21.505Z,200.00
2024-03-20T07:47:21.704Z,200.00
2024-03-20T07:48:21.613Z,200.74
2024-03-20T07:49:22.234Z,200.00
2024-03-20T07:50:21.671Z,199.41
2024-03-20T07:51:21.741Z,198.90
2024-03-20T07:52:24.112Z,200.00
2024-03-20T07:53:21.718Z,200.00
2024-03-20T07:54:21.767Z,200.29
2024-03-20T07:55:21.741Z,199.86
2024-03-20T07:56:21.738Z,200.00
2024-03-20T07:57:21.747Z,199.09
2024-03-20T07:58:21.746Z,199.59
2024-03-20T07:59:21.788Z,200.00
2024-03-20T08:00:21.749Z,199.36
2024-03-20T08:01:21.762Z,199.37
2024-03-20T08:02:21.768Z,199.66
2024-03-20T08:03:21.751Z,197.55
2024-03-20T08:04:21.770Z,193.39
2024-03-20T08:05:21.769Z,193.31
2024-03-20T08:06:21.788Z,191.00
2024-03-20T08:07:21.764Z,189.67
2024-03-20T08:08:21.776Z,191.04
2024-03-20T08:09:21.761Z,192.19
2024-03-20T08:10:21.762Z,186.11
2024-03-20T08:11:21.781Z,180.50
2024-03-20T08:12:21.813Z,175.56
2024-03-20T08:13:21.753Z,170.19
2024-03-20T08:14:21.755Z,164.73
2024-03-20T08:15:21.766Z,159.23
2024-03-20T08:16:21.808Z,153.44
2024-03-20T08:17:22.036Z,150.27
2024-03-20T08:18:21.789Z,145.64
2024-03-20T08:19:21.772Z,142.54
2024-03-20T08:20:21.784Z,139.43
2024-03-20T08:21:21.798Z,135.96
2024-03-20T08:22:21.772Z,137.77
2024-03-20T08:23:21.799Z,135.20
2024-03-20T08:24:21.811Z,132.49
2024-03-20T08:25:21.812Z,130.67
2024-03-20T08:26:21.776Z,127.62
2024-03-20T08:27:22.777Z,126.59
2024-03-20T08:28:21.794Z,125.71
2024-03-20T08:29:21.814Z,126.33
2024-03-20T08:30:21.808Z,126.16
2024-03-20T08:31:21.851Z,122.34
2024-03-20T08:32:21.815Z,123.38
2024-03-20T08:33:21.805Z,124.22
2024-03-20T08:34:21.810Z,123.47
2024-03-20T08:35:21.817Z,123.94
2024-03-20T08:36:21.839Z,120.86
2024-03-20T08:37:21.818Z,122.76
2024-03-20T08:38:21.870Z,122.82
2024-03-20T08:39:21.825Z,121.68
2024-03-20T08:40:21.813Z,120.63
2024-03-20T08:41:21.813Z,120.42
2024-03-20T08:42:21.865Z,120.68
2024-03-20T08:43:21.848Z,121.89
2024-03-20T08:44:21.938Z,122.07
2024-03-20T08:45:21.889Z,122.89
2024-03-20T08:46:21.927Z,124.59
2024-03-20T08:47:21.828Z,122.64
2024-03-20T08:48:21.854Z,123.79
2024-03-20T08:49:21.950Z,122.38
2024-03-20T08:50:21.842Z,122.44
2024-03-20T08:51:22.267Z,124.36
2024-03-20T08:52:21.883Z,122.44
2024-03-20T08:53:21.851Z,125.45
2024-03-20T08:54:21.842Z,123.74
2024-03-20T08:55:21.859Z,122.19
2024-03-20T08:56:21.856Z,122.48
2024-03-20T08:57:21.856Z,122.23
2024-03-20T08:58:21.883Z,118.23
2024-03-20T08:59:21.842Z,115.26
2024-03-20T09:00:21.882Z,117.55
2024-03-20T09:01:21.904Z,114.44
2024-03-20T09:02:21.919Z,111.23
2024-03-20T09:03:21.866Z,111.51
2024-03-20T09:04:21.883Z,111.79
2024-03-20T09:05:21.895Z,107.00
2024-03-20T09:06:21.887Z,110.01
2024-03-20T09:07:22.043Z,104.71
2024-03-20T09:08:21.862Z,106.63
2024-03-20T09:09:21.938Z,104.54
2024-03-20T09:10:21.905Z,102.08
2024-03-20T09:11:21.894Z,100.54
2024-03-20T09:12:21.862Z,98.52
2024-03-20T09:13:21.893Z,98.31
2024-03-20T09:14:21.884Z,97.88
2024-03-20T09:15:21.939Z,93.40
2024-03-20T09:16:21.972Z,94.36
2024-03-20T09:17:21.936Z,89.62
2024-03-20T09:18:21.904Z,88.45
2024-03-20T09:19:22.018Z,87.39
2024-03-20T09:20:21.933Z,84.71
2024-03-20T09:21:21.923Z,87.28
2024-03-20T09:22:21.907Z,85.22
2024-03-20T09:23:21.929Z,84.87
2024-03-20T09:24:21.942Z,84.32
2024-03-20T09:25:21.942Z,83.91
2024-03-20T09:26:21.932Z,81.64
2024-03-20T09:27:21.909Z,80.51
2024-03-20T09:28:21.923Z,82.86
2024-03-20T09:30:22.047Z,79.38
2024-03-20T09:31:21.966Z,79.46
2024-03-20T09:32:21.977Z,77.78
2024-03-20T09:33:21.971Z,75.33
2024-03-20T09:34:21.974Z,72.07
2024-03-20T09:35:21.952Z,76.23
2024-03-20T09:36:21.924Z,73.76
2024-03-20T09:37:21.952Z,74.66
2024-03-20T09:38:21.926Z,75.07
2024-03-20T09:39:21.956Z,71.69
2024-03-20T09:40:21.944Z,72.76
2024-03-20T09:41:22.007Z,71.46
2024-03-20T09:42:22.108Z,71.52
2024-03-20T09:43:23.324Z,71.02
2024-03-20T09:44:22.139Z,69.70
2024-03-20T09:45:22.171Z,73.21
2024-03-20T09:46:22.244Z,75.28
2024-03-20T09:47:22.274Z,77.90
2024-03-20T09:48:32.767Z,80.23
2024-03-20T09:49:23.314Z,80.29
2024-03-20T09:50:22.331Z,80.72
2024-03-20T09:51:22.331Z,81.28
2024-03-20T09:52:22.342Z,82.38
2024-03-20T09:53:22.332Z,82.65
2024-03-20T09:54:22.335Z,85.51
2024-03-20T09:55:22.362Z,83.82
2024-03-20T09:56:22.352Z,84.03
2024-03-20T09:57:22.388Z,82.92
2024-03-20T09:58:22.366Z,82.59
2024-03-20T09:59:22.367Z,82.05
2024-03-20T10:00:22.372Z,81.15
2024-03-20T10:01:22.420Z,80.41
2024-03-20T10:02:22.499Z,78.62
2024-03-20T10:03:25.298Z,78.90
2024-03-20T10:04:22.552Z,77.39
2024-03-20T10:05:22.530Z,75.76
2024-03-20T10:06:22.548Z,74.26
2024-03-20T10:07:22.559Z,70.95
2024-03-20T10:08:22.565Z,70.64
2024-03-20T10:09:22.557Z,72.01
2024-03-20T10:10:22.565Z,68.71
2024-03-20T10:11:22.599Z,69.05
2024-03-20T10:12:22.584Z,71.11
2024-03-20T10:13:22.577Z,65.59
2024-03-20T10:14:22.586Z,64.86
2024-03-20T10:15:22.566Z,65.23
2024-03-20T10:16:26.858Z,65.60
2024-03-20T10:17:22.590Z,63.69
2024-03-20T10:18:22.622Z,61.61
2024-03-20T10:19:22.572Z,61.71
2024-03-20T10:20:22.576Z,63.62
2024-03-20T10:21:22.569Z,64.67
2024-03-20T10:22:22.575Z,63.91
2024-03-20T10:23:22.579Z,64.48
2024-03-20T10:24:22.581Z,66.79
2024-03-20T10:25:22.591Z,65.13
2024-03-20T10:26:22.596Z,66.28
2024-03-20T10:27:22.602Z,63.05
2024-03-20T10:28:24.010Z,63.60
2024-03-20T10:29:29.450Z,62.41
2024-03-20T10:30:28.417Z,63.66
2024-03-20T10:31:30.015Z,63.72
2024-03-20T10:32:23.615Z,63.79
2024-03-20T10:33:22.608Z,64.46
2024-03-20T10:34:22.604Z,65.44
2024-03-20T10:35:22.622Z,67.08
2024-03-20T10:36:22.623Z,68.01
2024-03-20T10:37:22.618Z,67.10
2024-03-20T10:38:23.330Z,63.99
2024-03-20T10:39:25.866Z,62.08
2024-03-20T10:40:22.626Z,60.55
2024-03-20T10:41:22.627Z,58.56
2024-03-20T10:42:22.633Z,56.85
2024-03-20T10:43:22.641Z,54.07
2024-03-20T10:44:22.629Z,54.08
2024-03-20T10:45:22.621Z,57.28
2024-03-20T10:46:22.625Z,58.27
2024-03-20T10:47:22.828Z,59.98
2024-03-20T10:48:22.644Z,64.16
2024-03-20T10:49:22.653Z,70.39
2024-03-20T10:50:22.625Z,81.64
2024-03-20T10:51:22.629Z,96.63
2024-03-20T10:52:22.633Z,108.94
2024-03-20T10:53:22.638Z,121.90
2024-03-20T10:54:22.646Z,127.43
2024-03-20T10:55:22.655Z,135.06
2024-03-20T10:56:22.635Z,146.35
2024-03-20T10:57:22.640Z,155.50
2024-03-20T10:58:22.639Z,166.67
2024-03-20T10:59:22.654Z,173.29
2024-03-20T11:00:22.660Z,181.11
2024-03-20T11:01:22.644Z,181.91
2024-03-20T11:02:22.628Z,185.67
2024-03-20T11:03:22.685Z,194.45
2024-03-20T11:04:22.651Z,186.41
2024-03-20T11:05:22.671Z,188.87
2024-03-20T11:06:22.648Z,186.32
2024-03-20T11:07:22.636Z,187.84
2024-03-20T11:08:22.666Z,186.65
2024-03-20T11:09:22.656Z,186.54
2024-03-20T11:10:22.667Z,187.63
2024-03-20T11:11:22.745Z,188.65
2024-03-20T11:12:22.667Z,192.68
2024-03-20T11:13:22.657Z,193.56
2024-03-20T11:14:22.655Z,192.95
2024-03-20T11:15:22.673Z,194.56
2024-03-20T11:16:22.662Z,197.12
2024-03-20T11:17:22.678Z,193.45
2024-03-20T11:18:22.687Z,198.41
2024-03-20T11:19:22.713Z,199.66
2024-03-20T11:20:22.697Z,199.76
2024-03-20T11:21:22.680Z,200.00
2024-03-20T11:22:22.693Z,200.00
2024-03-20T11:23:22.680Z,200.74
2024-03-20T11:24:22.691Z,199.62
2024-03-20T11:25:22.693Z,198.69
2024-03-20T11:26:22.667Z,199.64
2024-03-20T11:27:22.691Z,199.18
2024-03-20T11:28:22.709Z,199.53
2024-03-20T11:29:22.714Z,199.26
2024-03-20T11:30:22.692Z,199.36
2024-03-20T11:31:22.700Z,200.00
2024-03-20T11:32:22.704Z,199.40
2024-03-20T11:33:22.707Z,199.32
2024-03-20T11:34:22.708Z,199.32
2024-03-20T11:35:22.708Z,199.54
2024-03-20T11:36:22.713Z,198.52
2024-03-20T11:37:22.718Z,199.22
2024-03-20T11:38:22.726Z,198.88
2024-03-20T11:39:22.726Z,200.00
2024-03-20T11:40:22.719Z,198.11
2024-03-20T11:41:22.773Z,199.62
2024-03-20T11:42:22.886Z,199.94
2024-03-20T11:43:22.838Z,198.30
2024-03-20T11:44:30.431Z,197.07
2024-03-20T11:45:23.831Z,197.08
2024-03-20T11:46:22.808Z,196.80
2024-03-20T11:47:22.812Z,194.70
2024-03-20T11:48:22.830Z,194.20
2024-03-20T11:49:22.835Z,193.98
2024-03-20T11:50:22.808Z,192.30
2024-03-20T11:51:22.816Z,183.75
2024-03-20T11:52:22.817Z,182.86
2024-03-20T11:53:25.144Z,181.81
2024-03-20T11:54:22.954Z,172.34
2024-03-20T11:55:22.847Z,172.62
2024-03-20T11:56:22.856Z,175.21
2024-03-20T11:57:22.830Z,171.15
2024-03-20T11:58:22.839Z,173.30
2024-03-20T11:59:22.878Z,172.07
2024-03-20T12:00:22.877Z,166.82
2024-03-20T12:01:22.868Z,165.66
2024-03-20T12:02:22.904Z,164.78
2024-03-20T12:03:22.939Z,162.59
2024-03-20T12:04:22.940Z,157.92
2024-03-20T12:05:22.970Z,157.48
2024-03-20T12:06:22.988Z,155.25
2024-03-20T12:07:23.033Z,154.73
2024-03-20T12:08:23.069Z,155.06
2024-03-20T12:09:23.094Z,155.23
2024-03-20T12:10:23.127Z,153.23
2024-03-20T12:11:23.176Z,150.55
2024-03-20T12:12:23.219Z,146.85
2024-03-20T12:13:23.853Z,147.84
2024-03-20T12:14:23.285Z,144.09
2024-03-20T12:15:23.334Z,142.28
2024-03-20T12:16:23.370Z,142.44
2024-03-20T12:17:23.428Z,140.41
2024-03-20T12:18:23.452Z,139.37
2024-03-20T12:19:23.529Z,136.79
2024-03-20T12:20:23.583Z,137.96
2024-03-20T12:21:23.651Z,136.47
2024-03-20T12:22:23.693Z,135.02
2024-03-20T12:23:26.694Z,131.33
2024-03-20T12:24:23.732Z,128.14
2024-03-20T12:25:23.715Z,124.35
2024-03-20T12:26:23.723Z,123.11
2024-03-20T12:27:23.732Z,121.29
2024-03-20T12:28:23.738Z,117.29
2024-03-20T12:29:23.736Z,118.65
2024-03-20T12:30:23.746Z,117.85
2024-03-20T12:31:26.296Z,117.74
2024-03-20T12:32:23.764Z,118.53
2024-03-20T12:33:23.734Z,116.04
2024-03-20T12:34:23.743Z,118.07
2024-03-20T12:35:23.752Z,117.00
2024-03-20T12:36:23.757Z,118.34
2024-03-20T12:37:23.782Z,118.29
2024-03-20T12:38:23.773Z,118.11
2024-03-20T12:39:23.751Z,118.07
2024-03-20T12:40:23.750Z,118.20
2024-03-20T12:41:23.761Z,117.78
2024-03-20T12:42:23.793Z,114.75
2024-03-20T12:43:23.777Z,115.05
2024-03-20T12:44:23.788Z,114.40
2024-03-20T12:45:23.759Z,115.76
2024-03-20T12:46:23.776Z,115.71